Time;durP1;ratioP1;P1;durP2;ratioP2;P2;SDS_P1;SDS_P2;PMS_P1;PMS_P2;Temp;Humidity;BMP_temperature;BMP_pressure;BME280_temperature;BME280_humidity;BME280_pressure;Samples;Min_cycle;Max_cycle;Signal;HPM_P1;HPM_P2
2022/03/11 00:00:10;;;;;;;9.05;3.85;;;5.90;99.90;;;;;;4900632;29;20148;-85
2022/03/11 00:02:43;;;;;;;7.38;3.78;;;5.90;99.90;;;;;;4916148;29;20032;-85
2022/03/11 00:05:10;;;;;;;11.32;4.47;;;6.00;99.90;;;;;;4900175;29;20048;-85
2022/03/11 00:07:37;;;;;;;8.52;4.20;;;6.00;99.90;;;;;;4915725;29;20025;-85
2022/03/11 00:10:04;;;;;;;9.85;3.60;;;6.00;99.90;;;;;;4902066;28;20035;-86
2022/03/11 00:12:31;;;;;;;10.23;3.88;;;5.90;99.90;;;;;;4942371;28;20023;-85
2022/03/11 00:14:57;;;;;;;10.63;4.72;;;5.80;99.90;;;;;;4958013;28;20027;-85
2022/03/11 00:17:23;;;;;;;8.45;4.35;;;5.90;99.90;;;;;;4942108;28;20026;-85
2022/03/11 00:19:56;;;;;;;7.72;3.90;;;5.70;99.90;;;;;;4941949;28;20034;-85
2022/03/11 00:22:23;;;;;;;11.70;5.40;;;5.80;99.90;;;;;;4942148;28;20065;-85
2022/03/11 00:24:49;;;;;;;10.35;4.20;;;5.80;99.90;;;;;;4942244;28;20023;-85
2022/03/11 00:27:15;;;;;;;11.75;4.57;;;5.80;99.90;;;;;;4957750;28;20043;-85
2022/03/11 00:29:42;;;;;;;11.63;4.00;;;5.70;99.90;;;;;;4941851;28;20030;-84
2022/03/11 00:32:09;;;;;;;8.00;3.80;;;5.70;99.90;;;;;;4958097;28;20519;-85
2022/03/11 00:34:35;;;;;;;11.85;4.43;;;5.70;99.90;;;;;;4943273;28;20023;-85
2022/03/11 00:37:07;;;;;;;6.63;3.42;;;5.70;99.90;;;;;;4946201;28;20499;-85
2022/03/11 00:39:33;;;;;;;9.55;4.28;;;5.60;99.90;;;;;;4961641;28;20055;-85
2022/03/11 00:42:00;;;;;;;9.00;4.25;;;5.50;99.90;;;;;;4945555;28;20066;-85
2022/03/11 00:44:26;;;;;;;8.55;4.25;;;5.50;99.90;;;;;;4961518;28;20112;-85
2022/03/11 00:46:53;;;;;;;9.68;4.20;;;5.50;99.90;;;;;;4945401;28;20182;-85
2022/03/11 00:49:20;;;;;;;11.40;4.70;;;5.40;99.90;;;;;;4945390;28;20027;-85
2022/03/11 00:51:47;;;;;;;14.95;4.53;;;5.20;99.90;;;;;;4945599;28;20074;-85
2022/03/11 00:54:13;;;;;;;10.70;3.92;;;5.20;99.90;;;;;;4945476;28;20026;-85
2022/03/11 00:56:40;;;;;;;10.13;4.40;;;5.20;99.90;;;;;;4945411;28;20057;-84
2022/03/11 00:59:06;;;;;;;8.65;4.15;;;5.20;99.90;;;;;;4945230;28;20507;-84
2022/03/11 01:01:32;;;;;;;11.13;4.32;;;5.20;99.90;;;;;;4945292;28;20130;-84
2022/03/11 01:03:59;;;;;;;9.57;4.18;;;5.20;99.90;;;;;;4961255;28;20396;-85
2022/03/11 01:06:25;;;;;;;7.88;3.75;;;5.30;99.90;;;;;;4945183;28;20103;-85
2022/03/11 01:08:52;;;;;;;8.13;4.40;;;5.30;99.90;;;;;;4961072;28;20082;-85
2022/03/11 01:11:19;;;;;;;11.43;3.75;;;5.30;99.90;;;;;;4945169;28;20027;-84
2022/03/11 01:13:45;;;;;;;10.05;4.10;;;5.30;99.90;;;;;;4945191;28;20058;-85
2022/03/11 01:16:12;;;;;;;11.50;3.45;;;5.40;99.90;;;;;;4945000;28;20038;-85
2022/03/11 01:18:41;;;;;;;7.90;3.45;;;5.50;99.90;;;;;;4961147;28;20027;-84
2022/03/11 01:21:10;;;;;;;8.20;3.85;;;5.50;99.90;;;;;;4944978;28;20596;-85
2022/03/11 01:23:38;;;;;;;10.00;3.70;;;5.60;99.90;;;;;;4944990;28;20031;-84
2022/03/11 01:26:05;;;;;;;9.30;4.72;;;5.60;99.90;;;;;;4944317;28;20043;-85
2022/03/11 01:28:31;;;;;;;11.43;4.10;;;5.60;99.90;;;;;;4960729;28;20040;-84
2022/03/11 01:30:58;;;;;;;6.60;3.03;;;5.60;99.90;;;;;;4944883;28;20033;-85
2022/03/11 01:33:28;;;;;;;8.73;3.55;;;5.60;99.90;;;;;;4943944;28;20035;-84
2022/03/11 01:35:54;;;;;;;20.95;3.78;;;5.50;99.90;;;;;;4944661;28;20038;-84
2022/03/11 01:38:21;;;;;;;8.82;3.33;;;5.40;99.90;;;;;;4960687;28;20038;-84
2022/03/11 01:40:48;;;;;;;6.88;3.50;;;5.30;99.90;;;;;;4944598;28;20097;-84
2022/03/11 01:43:18;;;;;;;8.70;3.45;;;5.20;99.90;;;;;;4944738;28;20023;-85
2022/03/11 01:45:45;;;;;;;8.13;3.63;;;5.20;99.90;;;;;;4959609;28;20027;-85
2022/03/11 01:48:12;;;;;;;9.88;3.80;;;5.20;99.90;;;;;;4944366;28;20125;-85
2022/03/11 01:50:41;;;;;;;6.28;3.10;;;5.10;99.90;;;;;;4944516;28;20066;-85
2022/03/11 01:53:10;;;;;;;8.95;3.45;;;5.20;99.90;;;;;;4944387;28;20050;-85
2022/03/11 01:55:39;;;;;;;6.78;3.33;;;5.20;99.90;;;;;;4960165;28;20035;-85
2022/03/11 01:58:11;;;;;;;6.82;3.55;;;5.10;99.90;;;;;;4944339;28;20046;-84
2022/03/11 02:00:40;;;;;;;9.27;3.45;;;5.20;99.90;;;;;;4944324;28;20489;-84
2022/03/11 02:03:07;;;;;;;7.40;2.72;;;5.20;99.90;;;;;;4944241;28;20030;-84
2022/03/11 02:05:34;;;;;;;8.50;4.85;;;5.20;99.90;;;;;;4960119;28;20045;-84
2022/03/11 02:08:01;;;;;;;15.35;3.40;;;5.20;99.90;;;;;;4944064;28;20027;-85
2022/03/11 02:10:30;;;;;;;7.38;3.03;;;5.10;99.90;;;;;;4959962;28;20488;-85
2022/03/11 02:13:03;;;;;;;15.15;3.78;;;5.20;99.90;;;;;;4944191;28;20031;-84
2022/03/11 02:15:30;;;;;;;8.73;3.33;;;5.20;99.90;;;;;;4943848;28;20110;-85
2022/03/11 02:17:59;;;;;;;9.82;3.72;;;5.10;99.90;;;;;;4957368;28;20084;-84
2022/03/11 02:20:25;;;;;;;9.73;4.22;;;5.10;99.90;;;;;;4943895;28;20027;-84
2022/03/11 02:22:53;;;;;;;6.65;3.85;;;5.10;99.90;;;;;;4943790;28;20604;-84
2022/03/11 02:25:20;;;;;;;11.50;3.70;;;5.10;99.90;;;;;;4943600;28;20054;-84
2022/03/11 02:27:47;;;;;;;7.13;3.08;;;5.00;99.90;;;;;;4943813;28;20125;-84
2022/03/11 02:30:17;;;;;;;6.05;3.42;;;5.00;99.90;;;;;;4943370;28;20097;-84
2022/03/11 02:32:48;;;;;;;9.18;3.72;;;5.00;99.90;;;;;;4959320;28;20037;-84
2022/03/11 02:35:16;;;;;;;6.03;3.28;;;5.00;99.90;;;;;;4943542;28;20551;-84
2022/03/11 02:37:43;;;;;;;7.45;2.95;;;4.90;99.90;;;;;;4959376;28;20503;-84
2022/03/11 02:40:10;;;;;;;10.48;4.15;;;4.90;99.90;;;;;;4943416;28;20029;-84
2022/03/11 02:42:37;;;;;;;9.82;3.17;;;4.90;99.90;;;;;;4959316;28;20026;-85
2022/03/11 02:45:07;;;;;;;6.85;3.25;;;4.80;99.90;;;;;;4943591;28;20046;-85
2022/03/11 02:47:34;;;;;;;8.55;3.50;;;4.80;99.90;;;;;;4959334;28;20117;-84
2022/03/11 02:50:01;;;;;;;19.17;3.50;;;4.70;99.90;;;;;;4943070;28;20062;-84
2022/03/11 02:52:28;;;;;;;6.97;3.45;;;4.70;99.90;;;;;;4943231;28;20480;-84
2022/03/11 02:54:56;;;;;;;8.07;3.53;;;4.70;99.90;;;;;;4943089;28;20035;-84
2022/03/11 02:57:23;;;;;;;8.57;3.13;;;4.70;99.90;;;;;;4943102;28;20031;-84
2022/03/11 02:59:49;;;;;;;7.28;2.92;;;4.70;99.90;;;;;;4942990;28;20023;-84
2022/03/11 03:02:16;;;;;;;10.13;3.80;;;4.60;99.90;;;;;;4943120;28;20055;-84
2022/03/11 03:04:43;;;;;;;9.45;3.90;;;4.60;99.90;;;;;;4943057;28;20053;-84
2022/03/11 03:07:11;;;;;;;6.40;3.08;;;4.60;99.90;;;;;;4943132;28;20039;-84
2022/03/11 03:09:41;;;;;;;10.35;3.70;;;4.60;99.90;;;;;;4943031;28;20027;-84
2022/03/11 03:12:10;;;;;;;10.98;3.13;;;4.60;99.90;;;;;;4958882;28;20035;-84
2022/03/11 03:14:37;;;;;;;13.98;3.30;;;4.70;99.90;;;;;;4942816;28;20054;-84
2022/03/11 03:17:06;;;;;;;9.18;3.63;;;4.70;99.90;;;;;;4958672;28;20033;-84
2022/03/11 03:19:38;;;;;;;7.57;2.90;;;4.70;99.90;;;;;;4942907;28;20022;-84
2022/03/11 03:22:04;;;;;;;6.55;3.10;;;4.80;99.90;;;;;;4958543;28;20046;-84
2022/03/11 03:24:32;;;;;;;5.28;2.92;;;4.80;99.90;;;;;;4942979;28;20069;-84
2022/03/11 03:26:59;;;;;;;7.93;2.97;;;4.80;99.90;;;;;;4942689;28;20129;-84
2022/03/11 03:29:25;;;;;;;7.28;2.92;;;4.90;99.90;;;;;;4942748;28;20070;-85
2022/03/11 03:31:57;;;;;;;25.85;3.30;;;4.90;99.90;;;;;;4942542;28;20117;-84
2022/03/11 03:34:29;;;;;;;5.13;2.65;;;4.90;99.90;;;;;;4942558;28;20110;-84
2022/03/11 03:36:59;;;;;;;7.50;2.97;;;4.90;99.90;;;;;;4942674;28;20027;-85
2022/03/11 03:39:27;;;;;;;6.78;2.67;;;4.90;99.90;;;;;;4958417;28;20034;-84
2022/03/11 03:41:55;;;;;;;5.13;2.47;;;4.90;99.90;;;;;;4942344;28;20027;-84
2022/03/11 03:44:23;;;;;;;15.48;2.90;;;4.90;99.90;;;;;;4942367;28;20037;-84
2022/03/11 03:46:50;;;;;;;7.45;2.92;;;4.90;99.90;;;;;;4942363;28;20128;-84
2022/03/11 03:49:17;;;;;;;6.53;3.33;;;4.90;99.90;;;;;;4942307;28;20031;-85
2022/03/11 03:51:44;;;;;;;3.80;2.30;;;4.80;99.90;;;;;;4942525;28;20122;-85
2022/03/11 03:54:11;;;;;;;8.20;3.30;;;4.80;99.90;;;;;;4942425;28;20027;-84
2022/03/11 03:56:40;;;;;;;6.22;2.78;;;4.90;99.90;;;;;;4942330;28;20117;-84
2022/03/11 03:59:08;;;;;;;5.70;3.00;;;4.80;99.90;;;;;;4958286;28;20042;-85
2022/03/11 04:01:37;;;;;;;10.13;3.38;;;4.80;99.90;;;;;;4942216;28;20050;-85
2022/03/11 04:04:05;;;;;;;8.27;3.05;;;4.80;99.90;;;;;;4942089;28;20480;-84
2022/03/11 04:06:40;;;;;;;6.97;2.90;;;4.80;99.90;;;;;;4942221;28;20042;-84
2022/03/11 04:09:08;;;;;;;5.40;2.92;;;4.70;99.90;;;;;;4957700;28;20115;-84
2022/03/11 04:11:36;;;;;;;5.38;2.78;;;4.80;99.90;;;;;;4942200;28;20030;-84
2022/03/11 04:14:03;;;;;;;5.47;3.10;;;4.80;99.90;;;;;;4957924;28;20403;-84
2022/03/11 04:16:31;;;;;;;12.85;4.80;;;4.80;99.90;;;;;;4942117;28;20114;-84
2022/03/11 04:18:57;;;;;;;7.53;3.08;;;4.70;99.90;;;;;;4942024;28;20064;-84
2022/03/11 04:21:24;;;;;;;7.55;2.92;;;4.70;99.90;;;;;;4941968;28;20117;-85
2022/03/11 04:23:51;;;;;;;9.07;3.50;;;4.60;99.90;;;;;;4942001;28;20031;-84
2022/03/11 04:26:18;;;;;;;8.35;3.22;;;4.60;99.90;;;;;;4941607;28;20512;-84
2022/03/11 04:28:45;;;;;;;7.75;3.65;;;4.50;99.90;;;;;;4942171;28;20070;-84
2022/03/11 04:31:12;;;;;;;6.85;3.58;;;4.50;99.90;;;;;;4941975;28;20031;-84
2022/03/11 04:33:40;;;;;;;6.53;3.42;;;4.40;99.90;;;;;;4941722;28;20030;-84
2022/03/11 04:36:08;;;;;;;12.15;4.30;;;4.50;99.90;;;;;;4941859;28;20084;-84
2022/03/11 04:38:39;;;;;;;8.27;3.92;;;4.50;99.90;;;;;;4942073;28;20034;-84
2022/03/11 04:41:06;;;;;;;5.72;2.83;;;4.50;99.90;;;;;;4941820;28;20023;-84
2022/03/11 04:43:34;;;;;;;8.70;3.58;;;4.50;99.90;;;;;;4941958;28;20568;-85
2022/03/11 04:46:01;;;;;;;6.30;3.28;;;4.40;99.90;;;;;;4957536;28;20039;-84
2022/03/11 04:48:27;;;;;;;11.73;4.50;;;4.40;99.90;;;;;;4941744;28;20121;-84
2022/03/11 04:50:56;;;;;;;7.65;3.17;;;4.30;99.90;;;;;;4941915;28;20373;-85
2022/03/11 04:53:23;;;;;;;8.65;3.33;;;4.40;99.90;;;;;;4941803;28;20113;-84
2022/03/11 04:55:49;;;;;;;10.40;3.83;;;4.30;99.90;;;;;;4941684;28;20023;-84
2022/03/11 04:58:16;;;;;;;7.38;3.20;;;4.30;99.90;;;;;;4941749;28;20475;-85
2022/03/11 05:00:42;;;;;;;12.77;3.92;;;4.30;99.90;;;;;;4941835;28;20019;-85
2022/03/11 05:03:09;;;;;;;7.18;3.17;;;4.20;99.90;;;;;;4957597;28;20510;-85
2022/03/11 05:05:35;;;;;;;9.35;3.20;;;4.20;99.90;;;;;;4941655;28;20034;-85
2022/03/11 05:08:02;;;;;;;10.55;4.10;;;4.20;99.90;;;;;;4941738;28;20035;-85
2022/03/11 05:10:28;;;;;;;5.82;3.28;;;4.30;99.90;;;;;;4957698;28;20034;-85
2022/03/11 05:12:55;;;;;;;9.70;3.63;;;4.20;99.90;;;;;;4941488;28;20113;-84
2022/03/11 05:15:24;;;;;;;7.57;3.45;;;4.20;99.90;;;;;;4941579;28;20448;-84
2022/03/11 05:17:51;;;;;;;10.38;3.10;;;4.20;99.90;;;;;;4941627;28;20031;-87
2022/03/11 05:20:18;;;;;;;7.28;2.60;;;4.20;99.90;;;;;;4957468;28;20038;-86
2022/03/11 05:22:44;;;;;;;7.32;3.33;;;4.30;99.90;;;;;;4944608;28;20051;-84
2022/03/11 05:25:11;;;;;;;8.77;3.42;;;4.30;99.90;;;;;;4961158;28;20378;-84
2022/03/11 05:27:40;;;;;;;7.82;3.15;;;4.30;99.90;;;;;;4945082;28;20035;-85
2022/03/11 05:30:09;;;;;;;6.95;2.67;;;4.30;99.90;;;;;;4944866;28;20034;-85
2022/03/11 05:32:43;;;;;;;11.48;2.58;;;4.40;99.90;;;;;;4944894;28;20038;-85
2022/03/11 05:35:11;;;;;;;6.72;2.70;;;4.40;99.90;;;;;;4960663;28;20085;-84
2022/03/11 05:37:37;;;;;;;10.82;3.20;;;4.40;99.90;;;;;;4944587;28;20026;-83
2022/03/11 05:40:05;;;;;;;3.45;2.17;;;4.40;99.90;;;;;;4944442;28;20034;-84
2022/03/11 05:42:32;;;;;;;7.03;2.70;;;4.50;99.90;;;;;;4944552;28;20062;-85
2022/03/11 05:44:59;;;;;;;6.05;2.53;;;4.50;99.90;;;;;;4944734;28;20488;-85
2022/03/11 05:47:25;;;;;;;6.80;2.47;;;4.60;99.90;;;;;;4960527;28;20108;-84
2022/03/11 05:49:52;;;;;;;5.35;2.85;;;4.60;99.90;;;;;;4944716;28;20055;-85
2022/03/11 05:52:22;;;;;;;7.30;2.65;;;4.70;99.90;;;;;;4944580;28;20571;-85
2022/03/11 05:54:49;;;;;;;5.60;2.67;;;4.70;99.90;;;;;;4944352;28;20054;-84
2022/03/11 05:57:16;;;;;;;5.40;2.75;;;4.80;99.90;;;;;;4944306;28;20117;-85
2022/03/11 05:59:43;;;;;;;6.25;2.78;;;4.80;99.90;;;;;;4944074;28;20031;-83
2022/03/11 06:02:09;;;;;;;8.63;2.10;;;4.90;99.90;;;;;;4944011;28;20027;-84
2022/03/11 06:04:37;;;;;;;4.70;2.22;;;4.90;99.90;;;;;;4943955;28;20030;-84
2022/03/11 06:07:05;;;;;;;6.32;2.22;;;5.00;99.90;;;;;;4944072;28;20042;-85
2022/03/11 06:09:32;;;;;;;6.05;2.67;;;5.10;99.90;;;;;;4943976;28;20026;-84
2022/03/11 06:11:59;;;;;;;6.15;2.53;;;5.10;99.90;;;;;;4944172;28;20042;-84
2022/03/11 06:14:26;;;;;;;4.43;2.38;;;5.20;99.90;;;;;;4943987;28;20105;-83
2022/03/11 06:16:53;;;;;;;7.97;2.30;;;5.30;99.90;;;;;;4960042;28;20190;-84
2022/03/11 06:19:19;;;;;;;4.95;2.28;;;5.40;99.90;;;;;;4943759;28;20030;-85
2022/03/11 06:21:46;;;;;;;4.80;2.10;;;5.40;99.90;;;;;;4943778;28;20038;-87
2022/03/11 06:24:13;;;;;;;6.78;2.85;;;5.50;99.90;;;;;;4943745;28;20484;-86
2022/03/11 06:26:41;;;;;;;6.07;2.95;;;5.70;99.90;;;;;;4943512;28;20047;-86
2022/03/11 06:29:10;;;;;;;5.45;2.20;;;5.70;99.90;;;;;;4959907;28;20118;-85
2022/03/11 06:31:37;;;;;;;5.93;1.98;;;5.90;99.90;;;;;;4943163;28;20031;-85
2022/03/11 06:34:04;;;;;;;9.32;1.88;;;6.00;99.90;;;;;;4959642;28;20053;-85
2022/03/11 06:36:31;;;;;;;4.38;1.90;;;6.10;99.90;;;;;;4943821;28;20065;-83
2022/03/11 06:39:00;;;;;;;6.22;2.45;;;6.30;99.90;;;;;;4943899;28;20051;-85
2022/03/11 06:41:26;;;;;;;6.90;2.70;;;6.30;99.90;;;;;;4943419;28;20069;-86
2022/03/11 06:43:53;;;;;;;7.25;2.53;;;6.40;99.90;;;;;;4943222;28;20030;-83
2022/03/11 06:46:19;;;;;;;7.10;2.30;;;6.50;99.90;;;;;;4943264;28;20049;-85
2022/03/11 06:48:46;;;;;;;11.32;3.40;;;6.60;99.90;;;;;;4943445;28;20433;-85
2022/03/11 06:51:12;;;;;;;5.10;2.13;;;6.80;99.90;;;;;;4959425;28;20041;-85
2022/03/11 06:53:39;;;;;;;4.25;2.20;;;6.90;99.90;;;;;;4943322;28;20027;-83
2022/03/11 06:56:06;;;;;;;5.28;2.42;;;6.90;99.90;;;;;;4943040;28;20173;-87
2022/03/11 06:58:35;;;;;;;7.25;2.90;;;7.00;99.90;;;;;;4943241;28;20057;-88
2022/03/11 07:01:03;;;;;;;4.15;2.83;;;7.10;99.90;;;;;;4942692;28;20030;-84
2022/03/11 07:03:30;;;;;;;4.00;2.22;;;7.10;99.90;;;;;;4943045;28;20035;-85
2022/03/11 07:05:57;;;;;;;5.95;2.40;;;7.20;99.90;;;;;;4942823;28;20050;-84
2022/03/11 07:08:28;;;;;;;5.55;2.65;;;7.20;99.90;;;;;;4943420;28;20065;-84
2022/03/11 07:10:55;;;;;;;7.53;1.98;;;7.20;99.90;;;;;;4943223;28;20050;-85
2022/03/11 07:13:22;;;;;;;6.72;2.13;;;7.30;99.90;;;;;;4942903;28;20022;-83
2022/03/11 07:15:49;;;;;;;9.52;2.38;;;7.40;99.90;;;;;;4958601;28;20030;-85
2022/03/11 07:18:15;;;;;;;4.93;2.63;;;7.40;99.90;;;;;;4942806;28;20023;-84
2022/03/11 07:20:42;;;;;;;3.35;2.08;;;7.50;99.90;;;;;;4958730;28;20041;-84
2022/03/11 07:23:09;;;;;;;3.80;2.05;;;7.50;99.90;;;;;;4942838;28;20054;-87
2022/03/11 07:25:36;;;;;;;3.45;1.77;;;7.60;99.90;;;;;;4958553;28;20051;-87
2022/03/11 07:28:03;;;;;;;7.25;2.20;;;7.70;99.90;;;;;;4942414;28;20050;-85
2022/03/11 07:30:29;;;;;;;5.15;2.45;;;7.60;99.90;;;;;;4942919;28;20496;-84
2022/03/11 07:32:56;;;;;;;3.53;1.88;;;7.70;99.90;;;;;;4942622;28;20114;-84
2022/03/11 07:35:23;;;;;;;2.60;1.60;;;7.70;99.90;;;;;;4958418;28;20078;-84
2022/03/11 07:37:50;;;;;;;6.43;1.75;;;7.80;99.90;;;;;;4942628;28;20022;-84
2022/03/11 07:40:17;;;;;;;3.85;1.70;;;7.80;99.90;;;;;;4958548;28;20031;-84
2022/03/11 07:42:43;;;;;;;6.35;1.52;;;7.90;99.90;;;;;;4942661;28;20107;-85
2022/03/11 07:45:15;;;;;;;4.47;2.10;;;8.00;99.90;;;;;;4941947;28;20078;-85
2022/03/11 07:47:42;;;;;;;5.40;1.98;;;7.90;99.90;;;;;;4958493;28;20038;-84
2022/03/11 07:50:10;;;;;;;7.75;2.38;;;7.90;99.90;;;;;;4942651;28;20025;-84
2022/03/11 07:52:39;;;;;;;3.85;1.50;;;7.90;99.90;;;;;;4958510;28;20037;-84
2022/03/11 07:55:09;;;;;;;4.38;1.98;;;7.90;99.90;;;;;;4958280;28;20026;-84
2022/03/11 07:57:36;;;;;;;4.78;2.00;;;8.00;99.90;;;;;;4942315;28;20085;-84
2022/03/11 08:00:08;;;;;;;3.60;1.50;;;8.00;99.90;;;;;;4942535;28;20535;-84
2022/03/11 08:02:44;;;;;;;3.30;1.88;;;8.20;99.90;;;;;;4958400;28;20449;-83
2022/03/11 08:05:14;;;;;;;3.67;1.98;;;8.30;99.90;;;;;;4942610;28;20137;-84
2022/03/11 08:07:48;;;;;;;4.25;1.80;;;8.10;99.90;;;;;;4942261;28;20404;-84
2022/03/11 08:10:17;;;;;;;2.90;1.70;;;8.20;99.90;;;;;;4958177;28;20392;-85
2022/03/11 08:12:46;;;;;;;4.50;1.60;;;8.30;99.90;;;;;;4942312;28;20030;-84
2022/03/11 08:15:12;;;;;;;2.72;1.60;;;8.50;99.90;;;;;;4958215;28;20030;-84
2022/03/11 08:17:40;;;;;;;3.92;2.22;;;8.70;99.90;;;;;;4942213;28;20392;-84
2022/03/11 08:20:15;;;;;;;3.35;1.80;;;8.50;99.90;;;;;;4942028;28;20026;-84
2022/03/11 08:22:41;;;;;;;2.95;1.90;;;8.50;99.90;;;;;;4942349;28;20041;-85
2022/03/11 08:25:10;;;;;;;3.38;1.90;;;8.80;99.90;;;;;;4942054;28;20467;-84
2022/03/11 08:27:40;;;;;;;6.60;2.05;;;8.80;99.90;;;;;;4942240;28;20065;-84
2022/03/11 08:30:08;;;;;;;4.85;1.98;;;9.00;99.90;;;;;;4942161;28;20027;-84
2022/03/11 08:32:37;;;;;;;2.83;1.65;;;8.90;99.90;;;;;;4941963;28;20054;-83
2022/03/11 08:35:04;;;;;;;3.67;1.92;;;9.00;99.90;;;;;;4942070;28;20077;-84
2022/03/11 08:40:27;;;;;;;3.35;1.67;;;8.90;99.90;;;;;;5373668;23;20051;-92
2022/03/11 08:42:55;;;;;;;2.70;1.95;;;9.00;99.90;;;;;;4941703;28;20054;-91
2022/03/11 08:45:22;;;;;;;3.88;1.42;;;9.00;99.90;;;;;;4941698;28;20030;-92
2022/03/11 08:47:53;;;;;;;5.68;1.85;;;8.80;99.90;;;;;;4942246;28;20030;-90
2022/03/11 08:50:21;;;;;;;3.60;1.90;;;8.70;99.90;;;;;;4957638;28;20027;-90
2022/03/11 08:52:48;;;;;;;5.38;1.70;;;8.70;99.90;;;;;;4941715;28;20066;-91
2022/03/11 08:55:15;;;;;;;2.75;1.75;;;8.50;99.90;;;;;;4958642;28;20031;-91
2022/03/11 08:57:48;;;;;;;4.22;1.70;;;8.50;99.90;;;;;;4945559;28;20031;-92
2022/03/11 09:00:17;;;;;;;1.92;1.48;;;8.70;99.90;;;;;;4961546;28;20026;-90
2022/03/11 09:02:45;;;;;;;1.67;1.20;;;8.80;99.90;;;;;;4945406;28;20117;-91
2022/03/11 09:05:13;;;;;;;4.03;1.83;;;8.90;99.90;;;;;;4945397;28;20023;-92
2022/03/11 09:07:40;;;;;;;3.35;1.80;;;8.70;99.90;;;;;;4945138;28;20035;-91
2022/03/11 09:10:12;;;;;;;3.38;1.60;;;8.70;99.90;;;;;;4960636;28;20027;-92
2022/03/11 09:12:40;;;;;;;4.50;2.00;;;8.50;99.90;;;;;;4961008;28;20034;-92
2022/03/11 09:15:08;;;;;;;4.03;1.20;;;8.60;99.90;;;;;;4945163;28;20027;-91
2022/03/11 09:17:35;;;;;;;4.07;1.67;;;8.70;99.90;;;;;;4945045;28;20114;-90
2022/03/11 09:20:03;;;;;;;4.25;2.00;;;8.70;99.90;;;;;;4944973;28;20037;-90
2022/03/11 09:22:30;;;;;;;2.97;1.77;;;8.60;99.90;;;;;;4960993;28;20022;-90
2022/03/11 09:24:58;;;;;;;5.00;1.58;;;8.50;99.90;;;;;;4945046;28;20027;-90
2022/03/11 09:27:26;;;;;;;3.35;1.80;;;8.60;99.90;;;;;;4960932;28;20089;-90
2022/03/11 09:29:53;;;;;;;8.45;1.60;;;8.60;99.90;;;;;;4945008;28;20066;-91
2022/03/11 09:32:23;;;;;;;2.95;1.60;;;8.70;99.90;;;;;;4944962;28;20392;-90
2022/03/11 09:34:49;;;;;;;4.72;2.33;;;8.70;99.90;;;;;;4944797;28;20480;-90
2022/03/11 09:37:16;;;;;;;4.82;1.48;;;8.80;99.90;;;;;;4960639;28;20031;-90
2022/03/11 09:39:42;;;;;;;2.65;1.40;;;8.80;99.90;;;;;;4944610;28;20512;-91
2022/03/11 09:42:10;;;;;;;4.00;1.75;;;8.70;99.90;;;;;;4960497;28;20039;-90
2022/03/11 09:44:39;;;;;;;5.65;2.53;;;8.70;99.90;;;;;;4944788;28;20050;-91
2022/03/11 09:47:07;;;;;;;4.43;1.85;;;8.70;99.90;;;;;;4944590;28;20050;-92
2022/03/11 09:49:35;;;;;;;4.28;2.05;;;8.60;99.90;;;;;;4944344;28;20027;-90
2022/03/11 09:52:05;;;;;;;3.25;1.52;;;8.60;99.90;;;;;;4944513;28;20121;-91
2022/03/11 09:54:34;;;;;;;5.25;2.40;;;8.70;99.90;;;;;;4944664;28;20082;-91
2022/03/11 09:57:08;;;;;;;4.80;2.00;;;8.80;99.90;;;;;;4945829;28;20023;-93
2022/03/11 10:00:04;;;;;;;4.43;2.55;;;8.80;99.90;;;;;;4959962;28;20035;-93
2022/03/11 10:02:46;;;;;;;9.52;2.67;;;8.70;99.90;;;;;;4961303;28;20165;-94
2022/03/11 10:05:14;;;;;;;4.43;1.90;;;8.80;99.90;;;;;;4946061;28;20429;-93
2022/03/11 10:07:41;;;;;;;4.90;1.95;;;8.80;99.90;;;;;;4944121;28;20082;-92
2022/03/11 10:10:15;;;;;;;2.95;1.95;;;8.90;99.90;;;;;;4944336;28;20031;-94
2022/03/11 10:12:44;;;;;;;4.10;2.00;;;8.90;99.90;;;;;;4944637;28;20035;-93
2022/03/11 10:15:28;;;;;;;3.60;1.58;;;8.90;99.90;;;;;;4946816;28;20113;-93
2022/03/11 10:17:57;;;;;;;14.65;1.92;;;8.90;99.90;;;;;;4947915;28;20033;-93
2022/03/11 10:20:25;;;;;;;3.13;1.95;;;8.80;99.90;;;;;;4947794;28;20041;-93
2022/03/11 10:23:33;;;;;;;4.43;2.35;;;8.90;99.90;;;;;;4948175;28;20026;-93
2022/03/11 10:26:09;;;;;;;3.83;1.92;;;8.90;99.90;;;;;;4906493;29;20056;-95
2022/03/11 10:28:38;;;;;;;3.30;1.70;;;8.80;99.90;;;;;;4936939;29;20040;-94
2022/03/11 10:31:24;;;;;;;3.08;1.73;;;8.90;99.90;;;;;;4936760;29;20047;-93
2022/03/11 10:34:17;;;;;;;4.18;2.08;;;8.70;99.90;;;;;;4937726;29;20027;-93
2022/03/11 10:36:55;;;;;;;4.35;2.13;;;8.60;99.90;;;;;;4937235;29;20047;-93
2022/03/11 10:39:27;;;;;;;5.70;2.05;;;8.70;99.90;;;;;;4933735;29;20044;-93
2022/03/11 10:42:13;;;;;;;4.57;2.60;;;8.80;99.90;;;;;;4901634;29;20135;-94
2022/03/11 10:45:04;;;;;;;11.00;2.65;;;8.90;99.90;;;;;;4918277;29;20028;-94
2022/03/11 10:47:36;;;;;;;4.97;2.40;;;8.90;99.90;;;;;;4903028;29;20044;-94
2022/03/11 10:50:18;;;;;;;9.48;2.50;;;8.90;99.90;;;;;;4917658;29;20032;-94
2022/03/11 10:52:46;;;;;;;7.88;2.95;;;9.00;99.90;;;;;;4917582;29;20033;-93
2022/03/11 10:55:28;;;;;;;4.32;2.25;;;9.00;99.90;;;;;;4879947;29;20044;-95
2022/03/11 10:57:56;;;;;;;4.75;2.22;;;9.00;99.90;;;;;;4880324;29;20227;-94
2022/03/11 11:00:29;;;;;;;5.35;2.33;;;9.00;99.90;;;;;;4881045;29;20411;-94
2022/03/11 11:03:00;;;;;;;4.55;2.30;;;9.00;99.90;;;;;;4917519;29;20088;-95
2022/03/11 11:05:29;;;;;;;4.35;2.08;;;9.00;99.90;;;;;;4918099;29;20029;-93
2022/03/11 11:07:58;;;;;;;4.78;2.45;;;9.00;99.90;;;;;;4918011;29;20046;-94
2022/03/11 11:10:27;;;;;;;6.80;2.15;;;9.10;99.90;;;;;;4917244;29;20040;-94
2022/03/11 11:12:54;;;;;;;4.53;2.25;;;9.20;99.90;;;;;;4917373;29;20068;-92
2022/03/11 11:15:32;;;;;;;5.05;2.10;;;9.20;99.90;;;;;;4917387;29;20095;-93
2022/03/11 11:18:07;;;;;;;5.25;2.85;;;9.10;99.90;;;;;;4918118;29;20406;-92
2022/03/11 11:20:48;;;;;;;3.63;2.25;;;9.00;99.90;;;;;;4917319;29;20040;-93
2022/03/11 11:23:41;;;;;;;6.20;2.63;;;9.10;99.90;;;;;;4935261;29;20032;-94
2022/03/11 11:26:31;;;;;;;8.52;2.42;;;9.30;99.90;;;;;;4917415;29;20135;-93
2022/03/11 11:29:00;;;;;;;3.70;2.20;;;9.30;99.90;;;;;;4902143;29;20024;-94
2022/03/11 11:31:29;;;;;;;3.90;2.35;;;9.30;99.90;;;;;;4902357;29;20050;-93
2022/03/11 11:33:57;;;;;;;4.90;2.28;;;9.30;99.90;;;;;;4924279;29;20042;-93
2022/03/11 11:36:36;;;;;;;10.13;2.90;;;9.10;99.90;;;;;;4924762;29;20497;-93
2022/03/11 11:39:05;;;;;;;5.60;2.42;;;9.00;99.90;;;;;;4940944;28;20070;-94
2022/03/11 11:41:34;;;;;;;4.60;2.08;;;9.00;99.90;;;;;;4943906;28;20538;-94
2022/03/11 11:44:05;;;;;;;8.27;2.78;;;9.00;99.90;;;;;;4943242;28;20027;-93
2022/03/11 11:46:37;;;;;;;4.78;3.05;;;9.00;99.90;;;;;;4942632;28;20137;-94
2022/03/11 11:49:16;;;;;;;9.68;3.10;;;9.10;99.90;;;;;;4944275;28;20523;-92
2022/03/11 11:51:49;;;;;;;3.40;2.25;;;9.10;99.90;;;;;;4943585;28;20105;-93
2022/03/11 11:54:35;;;;;;;5.18;2.13;;;9.20;99.90;;;;;;4953731;29;20035;-93
2022/03/11 11:57:05;;;;;;;3.60;2.38;;;9.10;99.90;;;;;;4955685;29;20035;-93
2022/03/11 11:59:35;;;;;;;5.43;2.55;;;9.10;99.90;;;;;;4956222;29;20046;-92
2022/03/11 12:02:23;;;;;;;5.43;2.80;;;9.10;99.90;;;;;;4954969;29;20090;-93
2022/03/11 12:04:51;;;;;;;7.80;2.33;;;9.10;99.90;;;;;;4955353;29;20035;-93
2022/03/11 12:07:22;;;;;;;4.13;2.13;;;9.20;99.90;;;;;;4955726;29;20039;-92
2022/03/11 12:09:54;;;;;;;6.53;2.33;;;9.30;99.90;;;;;;4961453;29;20083;-95
2022/03/11 12:12:22;;;;;;;4.68;2.20;;;9.20;99.90;;;;;;4939727;28;20038;-93
2022/03/11 12:15:11;;;;;;;3.65;2.60;;;9.20;99.90;;;;;;4960978;29;20026;-92
2022/03/11 12:21:48;;;;;;;3.70;2.10;;;9.40;99.90;;;;;;5647377;23;20050;-93
2022/03/11 12:24:46;;;;;;;4.32;2.50;;;9.00;99.90;;;;;;4944994;28;20078;-94
2022/03/11 12:30:16;;;;;;;4.65;2.60;;;8.90;99.90;;;;;;4900589;29;20063;-93
2022/03/11 12:32:59;;;;;;;5.40;2.33;;;9.00;99.90;;;;;;4900671;29;20029;-94
2022/03/11 12:41:01;;;;;;;3.72;2.42;;;9.00;99.90;;;;;;4883971;29;20048;-94
2022/03/11 12:44:02;;;;;;;5.57;2.45;;;9.20;99.90;;;;;;4847475;29;20156;-93
2022/03/11 12:47:23;;;;;;;6.60;2.80;;;9.00;99.90;;;;;;4817562;29;20053;-94
2022/03/11 12:53:56;;;;;;;6.13;2.95;;;9.10;99.90;;;;;;4810784;29;20548;-93
2022/03/11 13:03:03;;;;;;;7.93;3.13;;;9.20;99.90;;;;;;5617775;23;20050;-93
2022/03/11 13:06:21;;;;;;;4.07;2.55;;;9.20;99.90;;;;;;4981189;28;20023;-92
2022/03/11 13:09:21;;;;;;;6.00;3.30;;;9.10;99.90;;;;;;4975558;28;20031;-93
2022/03/11 13:11:55;;;;;;;6.82;2.90;;;9.20;99.90;;;;;;4962334;28;20026;-92
2022/03/11 13:14:35;;;;;;;7.05;3.22;;;9.10;99.90;;;;;;4944747;28;20186;-93
2022/03/11 13:17:46;;;;;;;;;;;;;;;;;;;;;
2022/03/11 13:20:51;;;;;;;3.65;2.13;;;9.00;99.90;;;;;;4877443;29;20045;-94
2022/03/11 13:23:47;;;;;;;5.07;2.67;;;9.00;99.90;;;;;;4887645;29;20033;-94
2022/03/11 13:26:23;;;;;;;4.93;2.57;;;9.00;99.90;;;;;;4880807;29;20049;-92
2022/03/11 13:28:58;;;;;;;5.78;2.83;;;9.00;99.90;;;;;;4881915;29;20074;-95
2022/03/11 13:31:38;;;;;;;4.15;2.70;;;9.00;99.90;;;;;;4881827;29;20040;-93
2022/03/11 13:34:08;;;;;;;8.38;3.28;;;8.90;99.90;;;;;;4866089;29;20045;-94
2022/03/11 13:36:55;;;;;;;5.75;2.67;;;8.90;99.90;;;;;;4881778;29;20069;-94
2022/03/11 13:39:22;;;;;;;13.13;3.33;;;9.00;99.90;;;;;;4866255;29;20048;-94